Time;durP1;ratioP1;P1;durP2;ratioP2;P2;SDS_P1;SDS_P2;PMS_P1;PMS_P2;Temp;Humidity;BMP_temperature;BMP_pressure;BME280_temperature;BME280_humidity;BME280_pressure;Samples;Min_cycle;Max_cycle;Signal;HPM_P1;HPM_P2
2021/12/06 00:01:21;;;;;;;40.23;27.50;;;;;;;0.14;78.91;100003.28;1720334;82;20965;-70
2021/12/06 00:03:54;;;;;;;43.28;28.75;;;;;;;0.16;78.93;99998.02;1714379;82;21410;-70
2021/12/06 00:06:21;;;;;;;46.73;30.10;;;;;;;0.17;78.97;100001.00;1717665;81;21123;-70
2021/12/06 00:08:48;;;;;;;43.50;27.15;;;;;;;0.17;79.00;100007.48;1724255;82;22252;-70
2021/12/06 00:11:14;;;;;;;48.23;30.23;;;;;;;0.18;79.00;100001.38;1722157;82;21042;-70
2021/12/06 00:13:44;;;;;;;44.42;29.00;;;;;;;0.18;79.02;100003.52;1717110;82;21031;-70
2021/12/06 00:16:17;;;;;;;46.23;28.60;;;;;;;0.19;79.07;99999.17;1718293;81;21088;-71
2021/12/06 00:18:42;;;;;;;45.98;29.07;;;;;;;0.19;79.07;100001.77;1712677;83;21044;-71
2021/12/06 00:21:08;;;;;;;43.08;27.40;;;;;;;0.18;79.07;99998.78;1697859;81;22230;-70
2021/12/06 00:23:35;;;;;;;43.08;28.52;;;;;;;0.18;79.10;99999.63;1715618;81;20935;-71
2021/12/06 00:26:02;;;;;;;47.65;29.80;;;;;;;0.19;79.13;99997.88;1723704;80;20959;-71
2021/12/06 00:28:28;;;;;;;39.05;25.65;;;;;;;0.20;79.13;100002.19;1736571;81;20987;-71
2021/12/06 00:30:55;;;;;;;41.50;26.70;;;;;;;0.21;79.14;99998.67;1711586;82;20980;-71
2021/12/06 00:33:24;;;;;;;44.50;29.12;;;;;;;0.21;79.14;99987.83;1698724;83;21801;-71
2021/12/06 00:35:51;;;;;;;41.98;27.20;;;;;;;0.23;79.12;99994.25;1718858;82;20961;-71
2021/12/06 00:38:17;;;;;;;45.48;28.60;;;;;;;0.24;79.13;99992.04;1682764;82;20986;-71
2021/12/06 00:40:47;;;;;;;43.42;27.98;;;;;;;0.24;79.12;99997.23;1675554;85;21060;-71
2021/12/06 00:43:13;;;;;;;44.65;28.38;;;;;;;0.24;79.14;99994.64;1676284;84;21151;-71
2021/12/06 00:45:40;;;;;;;44.20;28.32;;;;;;;0.24;79.13;99993.34;1663380;85;21808;-71
2021/12/06 00:48:08;;;;;;;43.73;28.27;;;;;;;0.24;79.13;100001.97;1683484;84;21432;-71
2021/12/06 00:50:38;;;;;;;47.30;28.73;;;;;;;0.25;79.16;99998.92;1725445;82;21051;-71
2021/12/06 00:53:04;;;;;;;41.83;27.95;;;;;;;0.26;79.16;99988.91;1634825;85;21031;-71
2021/12/06 00:55:31;;;;;;;50.10;28.87;;;;;;;0.27;79.15;99988.84;1664885;85;20960;-71
2021/12/06 00:57:57;;;;;;;43.30;28.17;;;;;;;0.27;79.16;99990.59;1679128;84;21811;-71
2021/12/06 01:00:38;;;;;;;49.18;29.25;;;;;;;0.26;79.18;99985.86;1699299;83;21085;-71
2021/12/06 01:03:07;;;;;;;45.10;28.00;;;;;;;0.24;79.19;99980.35;1679770;83;21551;-70
2021/12/06 01:05:34;;;;;;;43.65;27.13;;;;;;;0.22;79.25;99976.53;1720659;83;21009;-72
2021/12/06 01:08:00;;;;;;;43.68;28.92;;;;;;;0.21;79.30;99972.70;1704827;83;21103;-71
2021/12/06 01:10:27;;;;;;;46.88;30.25;;;;;;;0.20;79.32;99967.12;1707866;83;22639;-72
2021/12/06 01:12:54;;;;;;;42.13;26.95;;;;;;;0.20;79.35;99977.52;1680860;84;21068;-72
2021/12/06 01:15:20;;;;;;;50.70;30.82;;;;;;;0.21;79.40;99969.65;1681460;84;21096;-71
2021/12/06 01:17:47;;;;;;;49.67;30.08;;;;;;;0.21;79.43;99968.35;1699971;83;21005;-72
2021/12/06 01:20:18;;;;;;;51.63;31.62;;;;;;;0.22;79.44;99965.30;1710878;83;21422;-71
2021/12/06 01:22:52;;;;;;;48.70;30.30;;;;;;;0.23;79.49;99968.28;1722347;82;21784;-71
2021/12/06 01:25:27;;;;;;;47.67;29.32;;;;;;;0.24;79.48;99952.63;1711205;82;21355;-71
2021/12/06 01:28:14;;;;;;;47.70;29.75;;;;;;;0.26;79.51;99950.80;1694471;84;21078;-71
2021/12/06 01:33:29;;;;;;;44.10;28.73;;;;;;;0.28;79.53;99958.06;1712268;82;21412;-70
2021/12/06 01:41:01;;;;;;;48.30;28.50;;;;;;;0.30;79.64;99958.02;1677621;83;21497;-70
2021/12/06 01:43:29;;;;;;;48.45;29.12;;;;;;;0.28;79.69;99964.55;1696593;83;21518;-70
2021/12/06 01:45:56;;;;;;;46.15;29.50;;;;;;;0.29;79.73;99961.53;1682726;83;21017;-70
2021/12/06 01:48:23;;;;;;;46.95;27.95;;;;;;;0.28;79.78;99964.55;1680668;85;22275;-70
2021/12/06 01:50:49;;;;;;;44.90;28.45;;;;;;;0.29;79.80;99958.94;1701422;82;20980;-71
2021/12/06 01:53:17;;;;;;;45.63;28.32;;;;;;;0.27;79.81;99952.48;1682009;83;21367;-70
2021/12/06 01:55:44;;;;;;;42.62;27.13;;;;;;;0.27;79.86;99947.74;1689509;83;21452;-71
2021/12/06 01:58:11;;;;;;;41.85;25.90;;;;;;;0.25;79.91;99946.97;1678186;83;21367;-70
2021/12/06 02:00:42;;;;;;;45.15;26.27;;;;;;;0.24;79.95;99947.89;1699585;83;21862;-70
2021/12/06 02:03:11;;;;;;;46.83;28.30;;;;;;;0.23;80.00;99942.31;1681293;85;20952;-70
2021/12/06 02:05:39;;;;;;;50.30;29.40;;;;;;;0.21;80.04;99939.78;1678469;85;21120;-70
2021/12/06 02:08:08;;;;;;;47.15;28.10;;;;;;;0.21;80.10;99937.64;1679410;85;21456;-71
2021/12/06 02:10:36;;;;;;;45.33;27.45;;;;;;;0.22;80.13;99943.22;1648929;85;21049;-71
2021/12/06 02:13:06;;;;;;;46.77;27.58;;;;;;;0.21;80.17;99935.89;1678120;85;22526;-70
2021/12/06 02:18:08;;;;;;;44.30;26.48;;;;;;;0.23;80.23;99943.15;1696968;83;21167;-70
2021/12/06 02:20:36;;;;;;;47.25;27.20;;;;;;;0.23;80.27;99937.95;1709850;82;20988;-70
2021/12/06 02:23:00;;;;;;;47.60;27.35;;;;;;;0.23;80.27;99938.41;1705084;83;20959;-70
2021/12/06 02:25:26;;;;;;;47.80;27.27;;;;;;;0.22;80.32;99935.43;1683495;84;21788;-70
2021/12/06 02:27:53;;;;;;;50.85;27.70;;;;;;;0.21;80.32;99939.78;1688412;83;21047;-70
2021/12/06 02:30:20;;;;;;;45.75;28.52;;;;;;;0.20;80.37;99931.61;1659641;85;21017;-70
2021/12/06 02:32:47;;;;;;;46.50;26.70;;;;;;;0.20;80.41;99935.50;1712242;82;21004;-70
2021/12/06 02:35:16;;;;;;;48.05;27.37;;;;;;;0.21;80.46;99939.78;1676700;83;21517;-70
2021/12/06 02:37:42;;;;;;;48.45;29.50;;;;;;;0.22;80.50;99935.43;1693340;82;21483;-70
2021/12/06 02:40:13;;;;;;;48.80;28.85;;;;;;;0.23;80.50;99941.01;1716896;82;21056;-70
2021/12/06 02:42:42;;;;;;;49.10;28.83;;;;;;;0.24;80.56;99947.42;1749117;82;20967;-70
2021/12/06 02:45:12;;;;;;;49.03;27.98;;;;;;;0.26;80.59;99947.36;1752524;81;20978;-71
2021/12/06 02:47:40;;;;;;;49.27;29.52;;;;;;;0.27;80.59;99938.19;1752562;81;20939;-71
2021/12/06 02:50:09;;;;;;;50.65;28.17;;;;;;;0.30;80.60;99930.75;1722383;81;21828;-70
2021/12/06 02:52:36;;;;;;;54.30;29.82;;;;;;;0.30;80.62;99924.70;1736641;82;21523;-70
2021/12/06 02:55:21;;;;;;;49.18;29.52;;;;;;;0.30;80.66;99930.75;1727714;82;21032;-70
2021/12/06 02:57:37;;;;;;;47.45;26.77;;;;;;;0.32;80.67;99922.88;1738297;82;21511;-70
2021/12/06 03:00:10;;;;;;;45.17;26.62;;;;;;;0.34;80.72;99927.09;1746451;80;21519;-70
2021/12/06 03:02:37;;;;;;;53.25;30.48;;;;;;;0.35;80.74;99931.83;1743313;80;21814;-70
2021/12/06 03:05:05;;;;;;;58.63;31.60;;;;;;;0.34;80.79;99926.25;1743314;82;21000;-70
2021/12/06 03:07:36;;;;;;;57.17;32.25;;;;;;;0.35;80.80;99922.73;1751967;80;21059;-70
2021/12/06 03:10:05;;;;;;;52.58;30.08;;;;;;;0.36;80.82;99925.25;1753746;81;21022;-70
2021/12/06 03:12:32;;;;;;;54.88;31.65;;;;;;;0.38;80.85;99924.73;1753120;81;20964;-70
2021/12/06 03:14:59;;;;;;;50.73;29.25;;;;;;;0.39;80.84;99913.45;1717023;83;22200;-70
2021/12/06 03:17:29;;;;;;;51.63;29.02;;;;;;;0.41;80.88;99909.48;1757734;81;21092;-70
2021/12/06 03:19:57;;;;;;;48.83;29.45;;;;;;;0.41;80.86;99916.81;1720785;82;21021;-70
2021/12/06 03:22:25;;;;;;;57.13;32.93;;;;;;;0.40;80.89;99915.13;1757408;80;21629;-70
2021/12/06 03:24:53;;;;;;;48.42;27.75;;;;;;;0.41;80.92;99907.72;1761043;80;21004;-70
2021/12/06 03:27:20;;;;;;;54.18;30.32;;;;;;;0.40;80.93;99900.84;1757141;80;21908;-70
2021/12/06 03:29:49;;;;;;;58.87;31.48;;;;;;;0.40;80.97;99907.80;1745580;80;21022;-70
2021/12/06 03:32:16;;;;;;;60.90;30.97;;;;;;;0.40;81.00;99907.80;1748722;80;21459;-70
2021/12/06 03:34:42;;;;;;;61.63;33.83;;;;;;;0.41;81.06;99925.07;1744104;80;21011;-70
2021/12/06 03:37:09;;;;;;;57.05;32.53;;;;;;;0.41;81.07;99921.17;1746141;82;20870;-71
2021/12/06 03:39:43;;;;;;;57.20;33.18;;;;;;;0.42;81.11;99919.80;1739060;80;21803;-70
2021/12/06 03:42:11;;;;;;;54.88;31.87;;;;;;;0.44;81.13;99922.32;1744601;80;21000;-70
2021/12/06 03:44:39;;;;;;;57.80;32.65;;;;;;;0.45;81.13;99926.14;1717875;81;21118;-71
2021/12/06 03:47:10;;;;;;;61.40;34.92;;;;;;;0.46;81.15;99916.59;1743409;80;21171;-70
2021/12/06 03:49:36;;;;;;;60.98;33.88;;;;;;;0.46;81.17;99910.94;1748846;80;21056;-71
2021/12/06 03:52:05;;;;;;;62.45;33.70;;;;;;;0.46;81.18;99910.94;1743863;80;21812;-70
2021/12/06 03:54:31;;;;;;;63.52;34.10;;;;;;;0.47;81.20;99912.63;1746141;82;20953;-70
2021/12/06 03:57:00;;;;;;;65.28;35.50;;;;;;;0.47;81.24;99916.52;1737029;82;21017;-70
2021/12/06 03:59:26;;;;;;;54.83;30.80;;;;;;;0.48;81.25;99916.94;1772164;80;20995;-71
2021/12/06 04:01:54;;;;;;;60.20;33.53;;;;;;;0.50;81.26;99908.61;1746167;82;21004;-70
2021/12/06 04:04:22;;;;;;;64.17;33.78;;;;;;;0.49;81.26;99906.92;1725257;81;21862;-70
2021/12/06 04:06:49;;;;;;;64.70;31.55;;;;;;;0.49;81.28;99912.58;1708744;83;20962;-69
2021/12/06 04:09:16;;;;;;;60.80;33.48;;;;;;;0.50;81.31;99912.50;1739764;81;21000;-70
2021/12/06 04:11:42;;;;;;;63.87;34.33;;;;;;;0.49;81.33;99910.82;1728761;81;21029;-70
2021/12/06 04:14:09;;;;;;;61.08;33.02;;;;;;;0.49;81.36;99917.31;1715886;82;20944;-70
2021/12/06 04:16:36;;;;;;;55.98;30.75;;;;;;;0.52;81.38;99915.03;1742225;80;21851;-70
2021/12/06 04:19:05;;;;;;;63.95;33.83;;;;;;;0.51;81.39;99910.29;1740660;82;20992;-70
2021/12/06 04:21:32;;;;;;;54.53;28.95;;;;;;;0.50;81.39;99903.41;1721650;82;20871;-70
2021/12/06 04:23:58;;;;;;;59.95;33.40;;;;;;;0.48;81.44;99906.54;1701995;82;20969;-70
2021/12/06 04:26:26;;;;;;;59.58;32.35;;;;;;;0.49;81.46;99911.28;1729632;82;21012;-71
2021/12/06 04:28:59;;;;;;;57.93;30.05;;;;;;;0.48;81.53;99905.67;1688017;82;21849;-71
2021/12/06 04:31:22;;;;;;;56.50;30.92;;;;;;;0.48;81.60;99902.64;1730743;81;21384;-71
2021/12/06 04:33:49;;;;;;;55.12;29.42;;;;;;;0.49;81.63;99901.73;1711971;83;21004;-70
2021/12/06 04:36:15;;;;;;;57.83;30.88;;;;;;;0.49;81.66;99901.73;1710559;82;20993;-70
2021/12/06 04:38:43;;;;;;;54.53;30.32;;;;;;;0.50;81.68;99902.11;1746340;81;21505;-71
2021/12/06 04:41:09;;;;;;;54.27;30.05;;;;;;;0.51;81.72;99904.25;1712682;82;21832;-71
2021/12/06 04:43:38;;;;;;;47.08;26.48;;;;;;;0.51;81.76;99897.30;1752273;82;21004;-70
2021/12/06 04:46:04;;;;;;;48.60;27.45;;;;;;;0.54;81.77;99900.20;1751266;80;21012;-71
2021/12/06 04:48:32;;;;;;;53.42;29.80;;;;;;;0.53;81.86;99910.22;1717739;81;21006;-71
2021/12/06 04:50:59;;;;;;;58.85;30.45;;;;;;;0.54;81.86;99912.73;1746071;81;21469;-70
2021/12/06 04:53:28;;;;;;;55.70;31.10;;;;;;;0.55;81.92;99910.52;1765318;80;21844;-71
2021/12/06 04:56:12;;;;;;;54.80;30.50;;;;;;;0.57;81.95;99910.45;1732510;81;20988;-70
2021/12/06 04:58:47;;;;;;;53.63;29.85;;;;;;;0.60;82.00;99917.28;1707056;82;20968;-70
2021/12/06 05:01:18;;;;;;;58.48;32.25;;;;;;;0.60;82.05;99912.09;1715493;82;21592;-70
2021/12/06 05:03:46;;;;;;;60.63;31.68;;;;;;;0.59;82.06;99910.41;1720789;82;21011;-71
2021/12/06 05:06:19;;;;;;;53.48;29.10;;;;;;;0.60;82.13;99907.73;1750636;80;21810;-70
2021/12/06 05:08:50;;;;;;;58.95;31.45;;;;;;;0.61;82.21;99904.67;1733200;82;21047;-70
2021/12/06 05:11:18;;;;;;;57.60;31.55;;;;;;;0.61;82.20;99900.31;1725257;81;21011;-69
2021/12/06 05:13:46;;;;;;;64.67;32.67;;;;;;;0.61;82.27;99901.62;1729754;81;21255;-69
2021/12/06 05:16:14;;;;;;;59.60;32.45;;;;;;;0.62;82.32;99904.59;1706222;81;21063;-69
2021/12/06 05:18:41;;;;;;;59.13;31.75;;;;;;;0.64;82.35;99902.77;1722226;81;21852;-69
2021/12/06 05:21:08;;;;;;;59.30;31.60;;;;;;;0.64;82.39;99898.86;1729983;81;21059;-70
2021/12/06 05:23:35;;;;;;;59.20;32.33;;;;;;;0.66;82.43;99898.79;1726960;81;21495;-72
2021/12/06 05:26:03;;;;;;;56.18;30.27;;;;;;;0.68;82.46;99899.59;1727620;81;20991;-69
2021/12/06 05:28:33;;;;;;;56.83;30.70;;;;;;;0.69;82.49;99902.57;1726292;81;21021;-70
2021/12/06 05:30:59;;;;;;;58.63;32.75;;;;;;;0.72;82.53;99903.72;1724809;81;22509;-68
2021/12/06 05:33:33;;;;;;;57.78;30.62;;;;;;;0.72;82.50;99907.62;1731774;81;21467;-67
2021/12/06 05:35:58;;;;;;;57.90;30.95;;;;;;;0.73;82.54;99900.20;1727356;81;21047;-68
2021/12/06 05:38:27;;;;;;;56.18;32.50;;;;;;;0.76;82.57;99912.58;1720772;81;21582;-68
2021/12/06 05:40:54;;;;;;;53.90;29.67;;;;;;;0.77;82.57;99914.72;1737284;80;21077;-68
2021/12/06 05:43:22;;;;;;;52.58;29.75;;;;;;;0.78;82.58;99917.73;1713385;82;21820;-68
2021/12/06 05:45:49;;;;;;;59.25;31.68;;;;;;;0.79;82.62;99920.72;1693436;82;21005;-67
2021/12/06 05:48:17;;;;;;;52.10;30.12;;;;;;;0.79;82.62;99924.16;1674582;83;21151;-68
2021/12/06 05:50:46;;;;;;;52.08;29.55;;;;;;;0.80;82.62;99930.20;1696374;83;21067;-67
2021/12/06 05:53:15;;;;;;;50.83;28.25;;;;;;;0.80;82.64;99929.75;1703212;83;21055;-67
2021/12/06 05:55:42;;;;;;;55.10;31.55;;;;;;;0.82;82.66;99930.97;1706074;83;21831;-68
2021/12/06 05:58:10;;;;;;;53.78;30.10;;;;;;;0.82;82.69;99927.91;1705474;82;21014;-66
2021/12/06 06:00:37;;;;;;;49.77;28.75;;;;;;;0.85;82.70;99930.81;1705572;83;20996;-68
2021/12/06 06:03:05;;;;;;;53.85;30.05;;;;;;;0.85;82.72;99930.81;1704396;84;21541;-67
2021/12/06 06:05:34;;;;;;;50.55;27.98;;;;;;;0.85;82.72;99923.86;1698693;82;21075;-68
2021/12/06 06:08:01;;;;;;;52.27;30.97;;;;;;;0.87;82.75;99925.11;1706978;83;21622;-68
2021/12/06 06:10:30;;;;;;;54.50;30.15;;;;;;;0.89;82.78;99932.83;1686522;83;21495;-67
2021/12/06 06:12:56;;;;;;;51.85;29.48;;;;;;;0.90;82.79;99940.56;1706461;83;21012;-67
2021/12/06 06:15:23;;;;;;;52.30;29.87;;;;;;;0.91;82.81;99933.59;1706115;82;21048;-67
2021/12/06 06:17:50;;;;;;;49.98;29.48;;;;;;;0.92;82.81;99936.12;1705624;83;21386;-67
2021/12/06 06:20:42;;;;;;;48.52;28.77;;;;;;;0.94;82.86;99937.34;1694894;83;22497;-68
2021/12/06 06:23:09;;;;;;;49.00;27.50;;;;;;;0.94;82.85;99931.69;1707279;82;20928;-66
2021/12/06 06:25:35;;;;;;;55.85;31.62;;;;;;;0.95;82.87;99928.17;1705743;83;21013;-66
2021/12/06 06:28:03;;;;;;;50.00;28.60;;;;;;;0.97;82.91;99929.42;1710707;82;20992;-67
2021/12/06 06:30:29;;;;;;;51.02;30.00;;;;;;;0.97;82.95;99927.66;1706633;82;21026;-66
2021/12/06 06:32:57;;;;;;;54.55;31.20;;;;;;;0.99;82.95;99933.63;1700644;83;21832;-67
2021/12/06 06:35:24;;;;;;;48.95;28.38;;;;;;;1.00;82.95;99933.17;1697518;83;21125;-66
2021/12/06 06:37:51;;;;;;;52.38;30.65;;;;;;;1.01;82.98;99932.25;1706830;83;21445;-66
2021/12/06 06:40:18;;;;;;;55.40;32.00;;;;;;;1.03;83.00;99936.45;1683836;84;21009;-66
2021/12/06 06:42:45;;;;;;;48.90;29.57;;;;;;;1.04;83.02;99940.73;1686388;84;21078;-67
2021/12/06 06:45:15;;;;;;;49.27;29.95;;;;;;;1.06;83.05;99941.53;1668739;83;21867;-69
2021/12/06 06:47:42;;;;;;;50.48;30.60;;;;;;;1.06;83.04;99938.94;1669117;85;20989;-67
2021/12/06 06:50:09;;;;;;;53.68;30.80;;;;;;;1.07;83.06;99943.68;1702694;83;21436;-67
2021/12/06 06:52:37;;;;;;;53.48;32.30;;;;;;;1.06;83.09;99937.64;1693285;84;21446;-67
2021/12/06 06:55:06;;;;;;;54.70;32.55;;;;;;;1.09;83.12;99947.04;1694284;83;21055;-67
2021/12/06 06:57:32;;;;;;;50.28;29.30;;;;;;;1.10;83.12;99940.46;1705216;83;22533;-67
2021/12/06 06:59:59;;;;;;;57.25;34.18;;;;;;;1.12;83.13;99937.78;1684169;84;20977;-67
2021/12/06 07:02:25;;;;;;;52.90;33.95;;;;;;;1.12;83.15;99936.02;1679130;85;21047;-67
2021/12/06 07:04:52;;;;;;;56.37;33.95;;;;;;;1.14;83.17;99932.89;1677099;83;20976;-67
2021/12/06 07:07:19;;;;;;;55.55;33.23;;;;;;;1.17;83.18;99939.72;1669166;84;21348;-67
2021/12/06 07:09:46;;;;;;;57.35;34.65;;;;;;;1.18;83.18;99936.20;1670133;84;22484;-67
2021/12/06 07:12:13;;;;;;;58.98;36.23;;;;;;;1.20;83.22;99930.92;1677070;84;20901;-67
2021/12/06 07:14:40;;;;;;;54.20;32.30;;;;;;;1.21;83.21;99930.84;1676514;85;20962;-67
2021/12/06 07:17:06;;;;;;;59.45;36.65;;;;;;;1.24;83.24;99932.45;1673735;85;21104;-67
2021/12/06 07:19:33;;;;;;;58.33;35.80;;;;;;;1.23;83.23;99930.77;1674724;85;21069;-66
2021/12/06 07:21:59;;;;;;;63.42;35.92;;;;;;;1.24;83.26;99934.59;1677150;83;21844;-67
2021/12/06 07:24:26;;;;;;;57.90;33.88;;;;;;;1.25;83.27;99936.27;1675740;85;21020;-68
2021/12/06 07:26:53;;;;;;;57.83;35.98;;;;;;;1.27;83.30;99940.97;1669302;85;21040;-66
2021/12/06 07:29:19;;;;;;;55.25;33.05;;;;;;;1.29;83.30;99937.83;1659131;84;21021;-67
2021/12/06 07:31:47;;;;;;;60.63;38.45;;;;;;;1.31;83.31;99940.34;1652652;85;21440;-66
2021/12/06 07:34:13;;;;;;;60.20;35.33;;;;;;;1.32;83.33;99946.77;1673353;85;22498;-66
2021/12/06 07:36:39;;;;;;;63.38;38.55;;;;;;;1.34;83.32;99948.84;1673668;84;20998;-66
2021/12/06 07:39:07;;;;;;;53.00;32.48;;;;;;;1.35;83.35;99945.77;1675555;82;21072;-67
2021/12/06 07:41:34;;;;;;;64.90;38.48;;;;;;;1.37;83.36;99946.57;1674476;85;21091;-67
2021/12/06 07:44:02;;;;;;;64.25;37.85;;;;;;;1.39;83.38;99950.77;1663288;84;20964;-67
2021/12/06 07:46:30;;;;;;;64.60;38.65;;;;;;;1.40;83.39;99949.02;1681328;85;21856;-67
2021/12/06 07:48:57;;;;;;;56.15;34.73;;;;;;;1.41;83.38;99945.48;1684519;85;21016;-67
2021/12/06 07:51:25;;;;;;;64.85;40.25;;;;;;;1.42;83.38;99944.57;1661394;85;21107;-67
2021/12/06 07:53:52;;;;;;;62.67;37.35;;;;;;;1.44;83.40;99948.77;1680874;85;21084;-67
2021/12/06 07:56:20;;;;;;;64.97;38.45;;;;;;;1.45;83.42;99945.74;1697339;83;21439;-70
2021/12/06 07:58:47;;;;;;;59.85;35.78;;;;;;;1.48;83.43;99946.05;1700472;83;21846;-67
2021/12/06 08:01:14;;;;;;;72.30;43.68;;;;;;;1.50;83.46;99947.64;1710129;84;21468;-68
2021/12/06 08:03:41;;;;;;;62.55;37.38;;;;;;;1.51;83.46;99946.73;1696401;84;21407;-68
2021/12/06 08:06:09;;;;;;;55.85;34.78;;;;;;;1.54;83.49;99949.16;1658520;85;20987;-67
2021/12/06 08:08:38;;;;;;;122.20;39.90;;;;;;;1.57;83.51;99946.44;1672645;85;21028;-67
2021/12/06 08:11:10;;;;;;;63.10;34.45;;;;;;;1.59;83.51;99948.50;1649750;85;21829;-67
2021/12/06 08:13:38;;;;;;;50.48;30.88;;;;;;;1.61;83.54;99939.30;1668238;83;21039;-66
2021/12/06 08:16:09;;;;;;;54.77;31.90;;;;;;;1.63;83.56;99942.67;1668589;85;21023;-69
2021/12/06 08:18:36;;;;;;;46.98;29.40;;;;;;;1.63;83.57;99939.61;1650833;85;21074;-67
2021/12/06 08:21:04;;;;;;;46.33;28.52;;;;;;;1.66;83.62;99933.42;1655864;86;20963;-66
2021/12/06 08:23:31;;;;;;;47.93;31.50;;;;;;;1.68;83.65;99942.84;1676197;85;21820;-67
2021/12/06 08:25:58;;;;;;;45.28;28.57;;;;;;;1.71;83.66;99939.23;1676421;84;21408;-66
2021/12/06 08:28:26;;;;;;;44.77;27.73;;;;;;;1.74;83.67;99943.00;1664556;85;21011;-67
2021/12/06 08:30:53;;;;;;;48.23;28.12;;;;;;;1.76;83.69;99939.02;1674212;83;21059;-67
2021/12/06 08:33:20;;;;;;;48.05;27.10;;;;;;;1.79;83.72;99931.05;1706648;83;21026;-66
2021/12/06 08:35:52;;;;;;;50.52;27.10;;;;;;;1.81;83.74;99929.20;1671085;85;21838;-67
2021/12/06 08:38:16;;;;;;;40.88;24.80;;;;;;;1.84;83.75;99931.20;1670111;84;21337;-67
2021/12/06 08:40:44;;;;;;;42.17;25.50;;;;;;;1.88;83.77;99931.88;1684363;83;21043;-67
2021/12/06 08:43:16;;;;;;;42.03;26.97;;;;;;;1.89;83.75;99927.05;1698808;84;21006;-67
2021/12/06 08:45:39;;;;;;;38.23;24.43;;;;;;;1.91;83.75;99929.11;1698212;84;20952;-67
2021/12/06 08:48:06;;;;;;;40.45;25.45;;;;;;;1.92;83.77;99929.03;1722915;82;21879;-67
2021/12/06 08:50:32;;;;;;;40.43;26.95;;;;;;;1.94;83.77;99931.13;1699465;83;21391;-68
2021/12/06 08:52:59;;;;;;;43.08;28.27;;;;;;;1.96;83.75;99925.83;1719337;83;21449;-67
2021/12/06 08:55:27;;;;;;;40.30;26.55;;;;;;;1.97;83.78;99927.05;1685732;83;21078;-67
2021/12/06 08:57:55;;;;;;;43.20;26.70;;;;;;;2.00;83.78;99924.27;1684683;84;21480;-67
2021/12/06 09:00:28;;;;;;;39.65;25.05;;;;;;;2.02;83.77;99918.98;1694220;83;21796;-67
2021/12/06 09:02:55;;;;;;;;;;;;;;;2.02;83.79;99920.28;1683179;83;21578;-67
2021/12/06 09:05:26;;;;;;;37.42;23.83;;;;;;;2.04;83.78;99915.86;1708756;82;20158;-67
2021/12/06 09:07:52;;;;;;;36.68;24.30;;;;;;;2.02;83.77;99912.47;1676546;83;20992;-69
2021/12/06 09:10:20;;;;;;;38.90;25.12;;;;;;;2.04;83.79;99909.35;1720332;82;21060;-68
2021/12/06 09:12:48;;;;;;;36.45;22.58;;;;;;;2.06;83.82;99913.17;1710251;82;21814;-69
2021/12/06 09:15:17;;;;;;;36.80;23.77;;;;;;;2.10;83.83;99903.80;1687584;84;21447;-68
2021/12/06 09:17:45;;;;;;;31.00;22.25;;;;;;;2.12;83.83;99907.16;1704724;83;21008;-69
2021/12/06 09:20:13;;;;;;;29.15;20.52;;;;;;;2.15;83.82;99907.48;1703590;83;21020;-69
2021/12/06 09:22:40;;;;;;;32.78;21.62;;;;;;;2.16;83.81;99903.96;1709400;83;21466;-69
2021/12/06 09:25:09;;;;;;;33.40;20.70;;;;;;;2.18;83.81;99898.20;1694536;84;20956;-69
2021/12/06 09:27:36;;;;;;;33.58;21.97;;;;;;;2.19;83.82;99898.11;1692978;83;21080;-69
2021/12/06 09:30:05;;;;;;;35.63;21.37;;;;;;;2.20;83.81;99895.88;1685604;83;21021;-68
2021/12/06 09:32:31;;;;;;;31.33;21.70;;;;;;;2.24;83.83;99892.68;1682547;84;21019;-68
2021/12/06 09:34:59;;;;;;;29.35;20.52;;;;;;;2.25;83.83;99890.45;1677802;83;20985;-69
2021/12/06 09:37:25;;;;;;;35.78;22.30;;;;;;;2.28;83.83;99891.11;1711694;82;21821;-69
2021/12/06 09:39:53;;;;;;;35.38;21.62;;;;;;;2.29;83.82;99891.49;1727971;81;21066;-67
2021/12/06 09:42:21;;;;;;;31.75;21.65;;;;;;;2.30;83.81;99889.73;1705821;83;20973;-69
2021/12/06 09:44:48;;;;;;;33.90;22.77;;;;;;;2.33;83.84;99883.53;1711550;82;21431;-68
2021/12/06 09:47:14;;;;;;;33.73;22.52;;;;;;;2.34;83.79;99885.21;1706488;83;21435;-68
2021/12/06 09:49:41;;;;;;;31.48;21.33;;;;;;;2.36;83.82;99884.66;1735541;82;22525;-68
2021/12/06 09:52:07;;;;;;;32.73;21.27;;;;;;;2.38;83.85;99882.81;1735942;81;20928;-69
2021/12/06 09:54:38;;;;;;;32.13;20.77;;;;;;;2.39;83.84;99884.49;1711153;82;21016;-69
2021/12/06 09:57:06;;;;;;;28.57;19.42;;;;;;;2.40;83.86;99884.41;1722584;82;21051;-70
2021/12/06 09:59:34;;;;;;;29.82;17.82;;;;;;;2.43;83.87;99882.12;1715901;83;21012;-69
2021/12/06 10:02:05;;;;;;;28.95;18.82;;;;;;;2.46;83.84;99883.25;1720613;83;21822;-69
2021/12/06 10:04:39;;;;;;;32.80;18.42;;;;;;;2.46;83.85;99874.13;1687898;83;48935;-68
2021/12/06 10:07:07;;;;;;;34.90;18.50;;;;;;;2.47;83.84;99878.41;1706621;82;21064;-70
2021/12/06 10:09:33;;;;;;;24.57;17.02;;;;;;;2.49;83.88;99873.48;1678163;84;21046;-70
2021/12/06 10:12:01;;;;;;;31.10;19.07;;;;;;;2.50;83.84;99870.41;1688286;84;21033;-69
2021/12/06 10:14:28;;;;;;;31.70;17.98;;;;;;;2.49;83.80;99868.73;1708259;82;21846;-68
2021/12/06 10:16:55;;;;;;;28.40;17.82;;;;;;;2.50;83.84;99868.65;1700564;84;21472;-69
2021/12/06 10:19:21;;;;;;;27.20;18.05;;;;;;;2.53;83.84;99872.88;1700591;84;21357;-69
2021/12/06 10:21:48;;;;;;;27.48;17.77;;;;;;;2.53;83.83;99869.80;1697672;83;21009;-70
2021/12/06 10:24:18;;;;;;;27.35;16.73;;;;;;;2.55;83.85;99871.02;1711248;83;21015;-72
2021/12/06 10:26:45;;;;;;;27.27;15.55;;;;;;;2.56;83.87;99867.48;1693186;83;21808;-69
2021/12/06 10:29:20;;;;;;;26.50;17.20;;;;;;;2.58;83.85;99874.75;1704333;84;20962;-69
2021/12/06 10:31:45;;;;;;;;;;;;;;;2.58;83.83;99864.33;1729718;82;21044;-69
2021/12/06 10:34:24;;;;;;;24.43;15.28;;;;;;;2.59;83.84;99867.31;1717826;82;20418;-70
2021/12/06 10:36:52;;;;;;;21.95;14.35;;;;;;;2.58;83.83;99863.02;1705732;83;20960;-70
2021/12/06 10:39:22;;;;;;;22.60;14.80;;;;;;;2.58;83.84;99861.72;1705039;82;21806;-70
2021/12/06 10:41:51;;;;;;;22.55;14.60;;;;;;;2.58;83.87;99854.73;1716686;82;21435;-70
2021/12/06 10:44:18;;;;;;;19.57;12.28;;;;;;;2.62;83.85;99857.20;1697944;83;20985;-69
2021/12/06 10:46:50;;;;;;;17.85;12.75;;;;;;;2.63;83.85;99854.50;1714904;81;21519;-69
2021/12/06 10:49:21;;;;;;;20.62;13.18;;;;;;;2.63;83.82;99853.20;1714873;83;21052;-70
2021/12/06 10:51:48;;;;;;;19.73;13.90;;;;;;;2.64;83.83;99853.58;1716035;83;21770;-70
2021/12/06 10:54:20;;;;;;;18.60;13.25;;;;;;;2.66;83.83;99856.09;1715871;82;21020;-70
2021/12/06 10:56:51;;;;;;;19.55;12.43;;;;;;;2.67;83.78;99840.82;1717377;82;20993;-70
2021/12/06 10:59:30;;;;;;;18.48;13.20;;;;;;;2.69;83.81;99846.32;1725507;82;20981;-69
2021/12/06 11:02:03;;;;;;;17.10;12.78;;;;;;;2.69;83.77;99842.41;1718012;83;21052;-69
2021/12/06 11:04:31;;;;;;;16.97;12.35;;;;;;;2.68;83.77;99845.11;1749102;81;21776;-68
2021/12/06 11:07:05;;;;;;;17.48;12.07;;;;;;;2.66;83.70;99847.80;1716456;82;21047;-69
2021/12/06 11:09:29;;;;;;;18.50;11.70;;;;;;;2.65;83.68;99845.28;1697775;84;20997;-69
2021/12/06 11:12:00;;;;;;;16.82;12.28;;;;;;;2.64;83.72;99845.75;1738229;81;21011;-71
2021/12/06 11:14:38;;;;;;;19.57;12.73;;;;;;;2.64;83.72;99843.14;1746136;81;21043;-69
2021/12/06 11:17:11;;;;;;;17.45;12.53;;;;;;;2.65;83.74;99843.98;1717770;82;21884;-70
2021/12/06 11:19:38;;;;;;;22.85;12.82;;;;;;;2.66;83.77;99836.53;1722307;81;21017;-70
2021/12/06 11:22:15;;;;;;;17.87;12.75;;;;;;;2.67;83.80;99840.36;1728928;81;21012;-71
2021/12/06 11:24:46;;;;;;;17.50;10.35;;;;;;;2.70;83.78;99838.03;1691139;82;21030;-70
2021/12/06 11:27:32;;;;;;;14.28;9.83;;;;;;;2.72;83.79;99825.78;1699675;82;21051;-70
2021/12/06 11:30:05;;;;;;;10.35;7.25;;;;;;;2.71;83.76;99818.88;1713125;82;21851;-70
2021/12/06 11:32:36;;;;;;;8.63;7.00;;;;;;;2.70;83.71;99821.08;1718006;83;20996;-69
2021/12/06 11:35:12;;;;;;;10.15;7.40;;;;;;;2.69;83.68;99818.94;1714749;82;21000;-68
2021/12/06 11:37:49;;;;;;;9.15;7.05;;;;;;;2.67;83.65;99822.56;1724365;81;20973;-69
2021/12/06 11:40:23;;;;;;;10.38;8.05;;;;;;;2.66;83.67;99819.13;1715611;83;21008;-70
2021/12/06 11:43:03;;;;;;;9.58;7.20;;;;;;;2.65;83.64;99816.61;1718503;82;21732;-70